sensor_id;sensor_type;location;lat;lon;timestamp;P1;durP1;ratioP1;P2;durP2;ratioP2
55270;SDS011;41132;47.162;9.470;2022-12-07T00:20:05;6.60;;;3.03;;
55270;SDS011;41132;47.162;9.470;2022-12-07T00:22:31;6.07;;;2.70;;
55270;SDS011;41132;47.162;9.470;2022-12-07T00:35:17;6.43;;;2.97;;
55270;SDS011;41132;47.162;9.470;2022-12-07T00:37:42;7.38;;;2.75;;
55270;SDS011;41132;47.162;9.470;2022-12-07T00:40:08;6.57;;;3.22;;
55270;SDS011;41132;47.162;9.470;2022-12-07T00:42:33;5.85;;;2.40;;
55270;SDS011;41132;47.162;9.470;2022-12-07T00:44:59;6.60;;;2.70;;
55270;SDS011;41132;47.162;9.470;2022-12-07T00:47:24;6.10;;;2.80;;
55270;SDS011;41132;47.162;9.470;2022-12-07T00:52:25;4.70;;;2.05;;
55270;SDS011;41132;47.162;9.470;2022-12-07T00:54:50;7.13;;;2.83;;
55270;SDS011;41132;47.162;9.470;2022-12-07T00:57:15;5.30;;;2.45;;
55270;SDS011;41132;47.162;9.470;2022-12-07T00:59:41;6.13;;;2.88;;
55270;SDS011;41132;47.162;9.470;2022-12-07T01:02:06;5.78;;;3.00;;
55270;SDS011;41132;47.162;9.470;2022-12-07T01:04:33;6.10;;;2.88;;
55270;SDS011;41132;47.162;9.470;2022-12-07T01:06:59;5.72;;;2.90;;
55270;SDS011;41132;47.162;9.470;2022-12-07T01:14:35;5.55;;;2.25;;
55270;SDS011;41132;47.162;9.470;2022-12-07T01:27:21;5.43;;;2.60;;
55270;SDS011;41132;47.162;9.470;2022-12-07T01:37:35;5.18;;;2.28;;
55270;SDS011;41132;47.162;9.470;2022-12-07T01:40:03;7.65;;;2.63;;
55270;SDS011;41132;47.162;9.470;2022-12-07T01:42:30;6.32;;;2.67;;
55270;SDS011;41132;47.162;9.470;2022-12-07T01:47:43;4.80;;;2.28;;
55270;SDS011;41132;47.162;9.470;2022-12-07T01:52:50;5.03;;;2.60;;
55270;SDS011;41132;47.162;9.470;2022-12-07T01:55:18;7.88;;;2.88;;
55270;SDS011;41132;47.162;9.470;2022-12-07T01:57:45;6.22;;;3.03;;
55270;SDS011;41132;47.162;9.470;2022-12-07T02:05:25;6.55;;;3.17;;
55270;SDS011;41132;47.162;9.470;2022-12-07T03:18:36;6.68;;;3.55;;
55270;SDS011;41132;47.162;9.470;2022-12-07T03:21:06;6.88;;;3.15;;
55270;SDS011;41132;47.162;9.470;2022-12-07T03:23:40;6.30;;;3.13;;
55270;SDS011;41132;47.162;9.470;2022-12-07T03:26:11;6.97;;;3.30;;
55270;SDS011;41132;47.162;9.470;2022-12-07T03:28:40;5.82;;;2.97;;
55270;SDS011;41132;47.162;9.470;2022-12-07T03:36:52;5.50;;;2.65;;
55270;SDS011;41132;47.162;9.470;2022-12-07T03:41:44;5.82;;;3.10;;
55270;SDS011;41132;47.162;9.470;2022-12-07T04:10:23;8.02;;;3.78;;
55270;SDS011;41132;47.162;9.470;2022-12-07T05:32:58;7.10;;;4.10;;
55270;SDS011;41132;47.162;9.470;2022-12-07T06:09:01;7.93;;;3.60;;
55270;SDS011;41132;47.162;9.470;2022-12-07T06:42:29;8.63;;;3.13;;
55270;SDS011;41132;47.162;9.470;2022-12-07T13:21:51;12.45;;;6.68;;
55270;SDS011;41132;47.162;9.470;2022-12-07T13:29:27;10.13;;;6.05;;
55270;SDS011;41132;47.162;9.470;2022-12-07T13:32:03;12.02;;;6.00;;
55270;SDS011;41132;47.162;9.470;2022-12-07T13:34:35;10.32;;;5.75;;
55270;SDS011;41132;47.162;9.470;2022-12-07T14:22:05;11.90;;;6.47;;
55270;SDS011;41132;47.162;9.470;2022-12-07T14:24:43;12.80;;;6.50;;
55270;SDS011;41132;47.162;9.470;2022-12-07T14:27:23;9.48;;;5.72;;
55270;SDS011;41132;47.162;9.470;2022-12-07T14:29:50;10.13;;;6.40;;
55270;SDS011;41132;47.162;9.470;2022-12-07T14:35:02;10.48;;;6.72;;
55270;SDS011;41132;47.162;9.470;2022-12-07T14:37:35;11.35;;;6.57;;
55270;SDS011;41132;47.162;9.470;2022-12-07T15:11:04;11.40;;;6.05;;
55270;SDS011;41132;47.162;9.470;2022-12-07T15:13:29;11.98;;;6.82;;
55270;SDS011;41132;47.162;9.470;2022-12-07T15:16:14;10.73;;;6.15;;
55270;SDS011;41132;47.162;9.470;2022-12-07T15:18:44;11.15;;;6.15;;
55270;SDS011;41132;47.162;9.470;2022-12-07T15:21:12;12.90;;;6.55;;
55270;SDS011;41132;47.162;9.470;2022-12-07T15:28:49;11.73;;;6.70;;
55270;SDS011;41132;47.162;9.470;2022-12-07T15:36:26;11.70;;;6.38;;
55270;SDS011;41132;47.162;9.470;2022-12-07T15:38:53;9.35;;;5.80;;
55270;SDS011;41132;47.162;9.470;2022-12-07T15:41:20;15.45;;;6.93;;
55270;SDS011;41132;47.162;9.470;2022-12-07T15:43:45;10.38;;;5.75;;
55270;SDS011;41132;47.162;9.470;2022-12-07T15:46:30;11.80;;;6.55;;
55270;SDS011;41132;47.162;9.470;2022-12-07T15:48:59;14.30;;;6.25;;
55270;SDS011;41132;47.162;9.470;2022-12-07T15:51:26;16.20;;;7.60;;
55270;SDS011;41132;47.162;9.470;2022-12-07T15:53:51;12.50;;;6.40;;
55270;SDS011;41132;47.162;9.470;2022-12-07T15:56:18;10.77;;;6.10;;
55270;SDS011;41132;47.162;9.470;2022-12-07T15:58:43;11.13;;;6.55;;
55270;SDS011;41132;47.162;9.470;2022-12-07T16:01:12;11.45;;;6.97;;
55270;SDS011;41132;47.162;9.470;2022-12-07T16:03:39;11.40;;;6.85;;
55270;SDS011;41132;47.162;9.470;2022-12-07T16:06:04;11.30;;;6.95;;
55270;SDS011;41132;47.162;9.470;2022-12-07T16:08:30;9.73;;;6.10;;
55270;SDS011;41132;47.162;9.470;2022-12-07T16:10:55;12.50;;;7.05;;
55270;SDS011;41132;47.162;9.470;2022-12-07T16:13:21;12.73;;;6.45;;
55270;SDS011;41132;47.162;9.470;2022-12-07T16:15:46;11.77;;;6.93;;
55270;SDS011;41132;47.162;9.470;2022-12-07T16:18:12;13.68;;;7.55;;
55270;SDS011;41132;47.162;9.470;2022-12-07T16:20:37;14.77;;;6.93;;
55270;SDS011;41132;47.162;9.470;2022-12-07T16:23:03;12.05;;;7.20;;
55270;SDS011;41132;47.162;9.470;2022-12-07T16:25:28;12.02;;;7.80;;
55270;SDS011;41132;47.162;9.470;2022-12-07T16:27:54;15.00;;;8.90;;
55270;SDS011;41132;47.162;9.470;2022-12-07T16:30:19;13.52;;;8.75;;
55270;SDS011;41132;47.162;9.470;2022-12-07T16:32:45;13.90;;;9.63;;
55270;SDS011;41132;47.162;9.470;2022-12-07T16:35:11;15.25;;;9.35;;
55270;SDS011;41132;47.162;9.470;2022-12-07T16:37:37;18.58;;;10.40;;
55270;SDS011;41132;47.162;9.470;2022-12-07T16:40:02;14.43;;;9.30;;
55270;SDS011;41132;47.162;9.470;2022-12-07T16:42:34;12.82;;;8.85;;
55270;SDS011;41132;47.162;9.470;2022-12-07T16:45:00;16.27;;;8.55;;
55270;SDS011;41132;47.162;9.470;2022-12-07T16:47:28;14.57;;;8.68;;
55270;SDS011;41132;47.162;9.470;2022-12-07T16:49:54;13.05;;;7.95;;
55270;SDS011;41132;47.162;9.470;2022-12-07T16:52:20;14.20;;;8.80;;
55270;SDS011;41132;47.162;9.470;2022-12-07T16:54:46;16.00;;;8.40;;
55270;SDS011;41132;47.162;9.470;2022-12-07T16:59:48;13.50;;;9.35;;
55270;SDS011;41132;47.162;9.470;2022-12-07T17:02:13;15.15;;;9.27;;
55270;SDS011;41132;47.162;9.470;2022-12-07T17:04:39;13.93;;;7.72;;
55270;SDS011;41132;47.162;9.470;2022-12-07T17:07:08;11.43;;;6.78;;
55270;SDS011;41132;47.162;9.470;2022-12-07T17:09:34;13.82;;;8.52;;
55270;SDS011;41132;47.162;9.470;2022-12-07T17:12:00;12.13;;;7.38;;
55270;SDS011;41132;47.162;9.470;2022-12-07T17:14:25;12.55;;;7.15;;
55270;SDS011;41132;47.162;9.470;2022-12-07T17:17:09;11.35;;;6.80;;
55270;SDS011;41132;47.162;9.470;2022-12-07T17:19:35;12.23;;;7.28;;
55270;SDS011;41132;47.162;9.470;2022-12-07T17:22:04;12.55;;;7.68;;
55270;SDS011;41132;47.162;9.470;2022-12-07T17:24:29;11.15;;;7.35;;
55270;SDS011;41132;47.162;9.470;2022-12-07T17:26:55;12.25;;;7.25;;
55270;SDS011;41132;47.162;9.470;2022-12-07T17:29:20;12.50;;;7.20;;
55270;SDS011;41132;47.162;9.470;2022-12-07T17:31:46;11.93;;;7.85;;
55270;SDS011;41132;47.162;9.470;2022-12-07T17:34:13;12.02;;;7.10;;
55270;SDS011;41132;47.162;9.470;2022-12-07T17:36:40;12.98;;;7.38;;
55270;SDS011;41132;47.162;9.470;2022-12-07T17:39:06;12.20;;;7.53;;
55270;SDS011;41132;47.162;9.470;2022-12-07T17:41:34;13.13;;;7.55;;
55270;SDS011;41132;47.162;9.470;2022-12-07T17:44:18;10.45;;;7.35;;
55270;SDS011;41132;47.162;9.470;2022-12-07T17:46:45;10.63;;;7.07;;
55270;SDS011;41132;47.162;9.470;2022-12-07T17:49:12;12.00;;;7.05;;
55270;SDS011;41132;47.162;9.470;2022-12-07T17:51:37;12.45;;;7.78;;
55270;SDS011;41132;47.162;9.470;2022-12-07T17:54:21;12.75;;;7.63;;
55270;SDS011;41132;47.162;9.470;2022-12-07T18:02:23;13.40;;;7.93;;
55270;SDS011;41132;47.162;9.470;2022-12-07T18:07:23;11.40;;;6.65;;
55270;SDS011;41132;47.162;9.470;2022-12-07T18:09:48;13.13;;;7.13;;
55270;SDS011;41132;47.162;9.470;2022-12-07T18:17:24;17.70;;;8.50;;
55270;SDS011;41132;47.162;9.470;2022-12-07T19:03:49;11.77;;;7.90;;
55270;SDS011;41132;47.162;9.470;2022-12-07T19:06:15;13.70;;;8.10;;
55270;SDS011;41132;47.162;9.470;2022-12-07T19:08:41;14.98;;;8.45;;
55270;SDS011;41132;47.162;9.470;2022-12-07T19:11:06;11.95;;;7.78;;
55270;SDS011;41132;47.162;9.470;2022-12-07T19:16:26;12.50;;;7.60;;
55270;SDS011;41132;47.162;9.470;2022-12-07T19:18:52;15.45;;;7.72;;
55270;SDS011;41132;47.162;9.470;2022-12-07T19:21:17;12.52;;;7.88;;
55270;SDS011;41132;47.162;9.470;2022-12-07T19:23:42;15.13;;;7.03;;
55270;SDS011;41132;47.162;9.470;2022-12-07T19:26:08;14.50;;;7.30;;
55270;SDS011;41132;47.162;9.470;2022-12-07T19:28:33;12.30;;;7.80;;
55270;SDS011;41132;47.162;9.470;2022-12-07T19:30:58;12.10;;;8.13;;
55270;SDS011;41132;47.162;9.470;2022-12-07T19:35:59;13.10;;;7.97;;
55270;SDS011;41132;47.162;9.470;2022-12-07T19:48:45;11.23;;;5.95;;
55270;SDS011;41132;47.162;9.470;2022-12-07T19:56:20;14.80;;;8.40;;
55270;SDS011;41132;47.162;9.470;2022-12-07T20:09:07;11.13;;;7.07;;
55270;SDS011;41132;47.162;9.470;2022-12-07T20:50:21;10.23;;;5.05;;
55270;SDS011;41132;47.162;9.470;2022-12-07T21:08:59;9.43;;;4.53;;
55270;SDS011;41132;47.162;9.470;2022-12-07T21:50:12;7.90;;;3.95;;
55270;SDS011;41132;47.162;9.470;2022-12-07T23:18:37;6.30;;;2.97;;
